Time;durP1;ratioP1;P1;durP2;ratioP2;P2;SDS_P1;SDS_P2;PMS_P1;PMS_P2;Temp;Humidity;BMP_temperature;BMP_pressure;BME280_temperature;BME280_humidity;BME280_pressure;Samples;Min_cycle;Max_cycle;Signal;HPM_P1;HPM_P2
2022/02/14 00:00:13;;;;;;;1.00;0.65;;;-1.10;1.40;;;-0.99;100.00;94999.36;618858;226;32568;-75
2022/02/14 00:02:55;;;;;;;0.90;0.60;;;-1.40;1.40;;;-1.13;100.00;95002.79;649136;216;32148;-74
2022/02/14 00:05:36;;;;;;;2.50;0.60;;;-1.70;1.40;;;-1.44;100.00;94993.27;642941;216;31498;-74
2022/02/14 00:08:22;;;;;;;1.40;0.80;;;-1.80;1.40;;;-1.52;100.00;94994.34;650691;212;31535;-75
2022/02/14 00:11:07;;;;;;;0.90;0.90;;;-2.00;1.40;;;-1.53;100.00;94989.75;647731;216;31546;-75
2022/02/14 00:13:48;;;;;;;1.20;0.50;;;-2.00;1.40;;;-1.32;100.00;94986.52;649971;216;42110;-75
2022/02/14 00:16:30;;;;;;;1.60;0.62;;;-1.50;1.40;;;-0.93;100.00;94980.71;647783;216;31566;-76
2022/02/14 00:19:12;;;;;;;0.50;0.50;;;-1.00;1.40;;;-0.64;100.00;94982.02;646828;216;42086;-75
2022/02/14 00:21:54;;;;;;;0.80;0.80;;;-0.70;1.40;;;-0.45;100.00;94980.70;621191;225;32219;-74
2022/02/14 00:24:36;;;;;;;1.00;0.70;;;-0.60;1.40;;;-0.19;100.00;94974.86;645699;212;31542;-74
2022/02/14 00:29:52;;;;;;;2.00;0.90;;;-0.50;1.40;;;-0.27;100.00;94967.30;650190;216;31532;-75
2022/02/14 00:32:34;;;;;;;0.52;0.52;;;-0.50;1.40;;;-0.40;100.00;94959.78;649181;213;32063;-74
2022/02/14 00:35:51;;;;;;;1.00;0.90;;;-0.80;1.40;;;-0.43;100.00;94954.47;645494;216;31831;-75
2022/02/14 00:38:36;;;;;;;0.70;0.60;;;-0.70;1.40;;;-0.37;100.00;94955.69;646221;216;32641;-74
2022/02/14 00:41:17;;;;;;;2.80;1.00;;;-0.60;1.40;;;-0.35;100.00;94950.02;645668;216;31497;-74
2022/02/14 00:43:59;;;;;;;1.30;0.55;;;-0.70;1.40;;;-0.41;100.00;94947.20;621862;226;31873;-76
2022/02/14 00:46:41;;;;;;;1.30;0.93;;;-0.70;1.40;;;-0.41;100.00;94949.17;649598;216;31575;-75
2022/02/14 00:49:23;;;;;;;1.20;0.90;;;-0.80;1.40;;;-0.35;100.00;94944.32;646174;212;31547;-75
2022/02/14 00:52:04;;;;;;;0.80;0.80;;;-0.70;1.40;;;-0.53;100.00;94939.66;649956;212;31529;-75
2022/02/14 00:54:46;;;;;;;0.80;0.80;;;-1.10;1.40;;;-0.63;100.00;94940.94;620860;226;32689;-74
2022/02/14 00:57:28;;;;;;;1.20;1.10;;;-1.10;1.40;;;-0.54;100.00;94939.80;647897;216;31901;-74
2022/02/14 01:00:11;;;;;;;2.35;1.30;;;-0.80;1.40;;;-0.28;100.00;94952.54;647089;216;31542;-75
2022/02/14 01:02:56;;;;;;;0.60;0.60;;;-0.40;1.40;;;-0.34;100.00;94940.06;647919;212;31555;-75
2022/02/14 01:05:38;;;;;;;0.80;0.80;;;-0.60;1.40;;;-0.38;100.00;94934.03;648723;212;32457;-75
2022/02/14 01:08:20;;;;;;;0.90;0.90;;;-0.70;1.40;;;-0.41;100.00;94930.48;647196;212;31548;-75
2022/02/14 01:11:01;;;;;;;0.60;0.50;;;-0.70;1.40;;;-0.14;100.00;94935.84;650716;216;31550;-75
2022/02/14 01:13:43;;;;;;;1.40;0.90;;;-0.30;1.40;;;-0.03;100.00;94933.66;650009;216;31537;-75
2022/02/14 01:16:25;;;;;;;0.70;0.70;;;-0.30;1.40;;;-0.12;99.77;94923.93;649704;213;31510;-74
2022/02/14 01:19:06;;;;;;;1.20;0.55;;;-0.40;1.40;;;-0.10;99.47;94923.73;646279;212;31634;-75
2022/02/14 01:21:51;;;;;;;0.50;0.40;;;-0.40;1.40;;;-0.13;99.90;94926.91;646936;216;31498;-75
2022/02/14 01:24:34;;;;;;;0.80;0.60;;;-0.40;1.40;;;-0.13;100.00;94925.84;645180;216;31720;-75
2022/02/14 01:27:15;;;;;;;0.50;0.40;;;-0.40;1.40;;;-0.10;99.89;94921.55;648795;216;31857;-74
2022/02/14 01:29:56;;;;;;;0.70;0.40;;;-0.40;1.40;;;-0.03;99.23;94915.07;646716;216;31520;-75
2022/02/14 01:32:38;;;;;;;1.20;1.00;;;-0.30;1.40;;;0.06;97.98;94911.19;617024;226;31841;-75
2022/02/14 01:35:51;;;;;;;0.80;0.40;;;-0.20;1.40;;;-0.04;97.74;94910.37;645812;216;31527;-75
2022/02/14 01:38:33;;;;;;;0.50;0.40;;;-0.40;1.40;;;0.00;96.23;94905.23;646585;216;31948;-75
2022/02/14 01:41:14;;;;;;;0.70;0.70;;;-0.30;1.40;;;0.05;94.44;94903.77;650642;216;31531;-75
2022/02/14 01:43:57;;;;;;;1.00;0.57;;;-0.30;1.40;;;0.09;93.07;94900.72;647038;216;31557;-75
2022/02/14 01:46:40;;;;;;;1.05;0.68;;;-0.10;1.40;;;0.08;92.95;94890.53;619801;222;31891;-75
2022/02/14 01:49:22;;;;;;;0.65;0.65;;;-0.30;1.40;;;0.24;90.66;94894.27;649528;216;42108;-74
2022/02/14 01:52:07;;;;;;;0.70;0.70;;;0.00;1.40;;;0.30;89.10;94884.62;651061;216;31553;-75
2022/02/14 01:54:48;;;;;;;0.80;0.80;;;0.00;1.40;;;0.35;88.13;94875.33;646245;212;31579;-75
2022/02/14 01:57:30;;;;;;;0.50;0.50;;;0.10;1.40;;;0.38;87.03;94865.83;649851;212;31536;-75
2022/02/14 02:00:12;;;;;;;0.50;0.50;;;0.10;1.40;;;0.38;86.38;94871.55;644159;216;32137;-75
2022/02/14 02:02:54;;;;;;;0.80;0.80;;;0.10;1.40;;;0.37;85.61;94867.19;645646;216;31520;-75
2022/02/14 02:05:36;;;;;;;2.90;0.70;;;0.00;1.40;;;0.49;83.91;94867.04;648862;216;31522;-75
2022/02/14 02:08:17;;;;;;;0.60;0.60;;;0.20;1.40;;;0.64;81.74;94859.06;649113;216;31501;-75
2022/02/14 02:12:22;;;;;;;1.00;0.90;;;0.30;1.40;;;0.71;79.56;94860.59;650363;212;42324;-74
2022/02/14 02:13:52;;;;;;;0.80;0.80;;;0.50;1.40;;;0.84;78.22;94853.34;652534;216;31612;-75
2022/02/14 02:16:33;;;;;;;1.37;1.00;;;0.50;1.40;;;0.79;78.40;94845.25;650769;216;42140;-75
2022/02/14 02:19:18;;;;;;;1.23;1.10;;;0.50;1.40;;;0.75;78.76;94847.16;643712;216;31591;-74
2022/02/14 02:24:45;;;;;;;1.00;0.80;;;0.30;1.40;;;0.54;78.80;94845.05;647373;212;31632;-74
2022/02/14 02:27:27;;;;;;;0.70;0.70;;;0.10;1.40;;;0.47;78.62;94840.84;651881;212;31496;-74
2022/02/14 02:30:10;;;;;;;0.80;0.80;;;0.10;1.40;;;0.53;77.84;94839.97;648193;212;42845;-75
2022/02/14 02:32:52;;;;;;;0.73;0.73;;;0.20;1.40;;;0.53;77.49;94828.30;648729;212;42102;-74
2022/02/14 02:35:51;;;;;;;1.40;0.90;;;0.20;1.40;;;0.44;77.83;94828.98;646117;212;32124;-75
2022/02/14 02:38:33;;;;;;;1.10;1.00;;;0.10;1.40;;;0.65;76.70;94831.33;648722;216;31997;-74
2022/02/14 02:41:15;;;;;;;0.50;0.50;;;0.30;1.40;;;0.64;77.41;94831.59;646890;216;31554;-75
2022/02/14 02:43:56;;;;;;;0.40;0.40;;;0.30;1.40;;;0.67;77.49;94828.67;645736;216;42478;-75
2022/02/14 02:46:38;;;;;;;2.30;0.73;;;0.30;1.40;;;0.55;78.41;94832.30;648191;216;31466;-74
2022/02/14 02:49:23;;;;;;;0.40;0.40;;;0.10;1.40;;;0.46;81.50;94832.89;648312;216;31567;-75
2022/02/14 02:52:05;;;;;;;0.70;0.60;;;0.10;1.40;;;0.34;83.63;94831.28;618447;222;32034;-76
2022/02/14 02:54:47;;;;;;;0.75;0.70;;;-0.10;1.40;;;0.33;82.75;94827.66;621903;222;32364;-75
2022/02/14 02:57:31;;;;;;;0.70;0.50;;;0.00;1.40;;;0.42;81.33;94829.66;646548;216;31557;-75
2022/02/14 03:00:14;;;;;;;0.80;0.50;;;0.10;1.40;;;0.47;80.43;94826.49;646326;215;31699;-75
2022/02/14 03:02:57;;;;;;;0.82;0.82;;;0.10;1.40;;;0.59;79.24;94819.19;648241;216;34669;-74
2022/02/14 03:05:38;;;;;;;0.90;0.70;;;0.30;1.40;;;0.56;78.61;94811.70;649672;216;31535;-75
2022/02/14 03:08:19;;;;;;;0.50;0.50;;;0.30;1.40;;;0.73;76.77;94809.34;646602;216;42104;-75
2022/02/14 03:11:01;;;;;;;0.50;0.40;;;0.40;1.40;;;0.86;74.49;94804.05;650674;212;31567;-74
2022/02/14 03:13:43;;;;;;;0.90;0.70;;;0.60;1.40;;;0.88;73.50;94802.08;646012;216;31609;-75
2022/02/14 03:16:24;;;;;;;0.80;0.60;;;0.60;1.40;;;0.79;73.84;94802.57;647301;216;31907;-75
2022/02/14 03:19:06;;;;;;;0.70;0.70;;;0.40;1.40;;;0.84;72.27;94805.16;648518;216;31541;-75
2022/02/14 03:21:47;;;;;;;0.70;0.47;;;0.50;1.40;;;1.05;69.50;94795.83;652540;216;31503;-75
2022/02/14 03:24:30;;;;;;;0.80;0.65;;;0.80;1.40;;;1.19;66.52;94792.44;646009;212;32101;-75
2022/02/14 03:27:11;;;;;;;0.65;0.60;;;0.90;1.40;;;1.17;65.24;94788.43;651395;216;42217;-75
2022/02/14 03:32:27;;;;;;;3.35;1.15;;;0.90;1.40;;;1.36;62.14;94783.66;624851;225;31886;-76
2022/02/14 03:35:53;;;;;;;1.00;0.90;;;1.00;1.40;;;1.41;60.25;94785.22;626633;222;31926;-75
2022/02/14 03:38:38;;;;;;;1.60;0.70;;;1.10;1.40;;;1.43;59.75;94782.66;649828;216;42124;-74
2022/02/14 03:41:20;;;;;;;1.20;0.70;;;1.10;1.40;;;1.42;59.85;94779.39;647079;216;42238;-76
2022/02/14 03:44:02;;;;;;;0.60;0.60;;;1.00;1.40;;;1.48;58.80;94778.13;621209;226;42504;-75
2022/02/14 03:46:48;;;;;;;1.12;0.60;;;1.20;1.40;;;1.64;57.22;94776.41;650057;216;31535;-74
2022/02/14 03:49:30;;;;;;;0.60;0.50;;;1.40;1.40;;;1.66;57.02;94774.55;622232;226;31850;-74
2022/02/14 03:52:12;;;;;;;1.10;1.00;;;1.40;1.40;;;1.66;57.30;94776.26;647756;212;31486;-74
2022/02/14 03:54:54;;;;;;;1.10;1.00;;;1.30;1.40;;;1.67;57.43;94763.01;647031;212;31531;-74
2022/02/14 03:57:39;;;;;;;1.60;0.70;;;1.40;1.40;;;1.70;57.56;94764.00;646573;216;32087;-75
2022/02/14 04:00:21;;;;;;;0.60;0.60;;;1.40;1.40;;;1.66;58.01;94766.00;649982;212;31473;-75
2022/02/14 04:03:11;;;;;;;1.62;0.85;;;1.20;1.40;;;1.63;57.97;94765.56;650307;216;32103;-74
2022/02/14 04:05:52;;;;;;;0.77;0.70;;;1.20;1.40;;;1.59;57.49;94758.52;645545;216;42654;-76
2022/02/14 04:08:35;;;;;;;2.65;0.60;;;1.20;1.40;;;1.60;56.89;94751.84;651930;216;31519;-75
2022/02/14 04:11:16;;;;;;;0.50;0.50;;;1.20;1.40;;;1.54;56.74;94749.75;647796;216;31544;-75
2022/02/14 04:14:00;;;;;;;0.80;0.50;;;1.20;1.40;;;1.65;55.97;94741.48;646453;216;31512;-75
2022/02/14 04:16:42;;;;;;;0.52;0.52;;;1.30;1.40;;;1.67;55.25;94736.08;651547;216;31521;-74
2022/02/14 04:19:24;;;;;;;0.73;0.50;;;1.40;1.40;;;1.75;54.81;94733.17;650177;216;31618;-75
2022/02/14 04:22:05;;;;;;;0.50;0.35;;;1.40;1.40;;;1.87;54.24;94733.79;648421;216;31580;-74
2022/02/14 04:24:47;;;;;;;0.80;0.50;;;1.50;1.40;;;1.82;54.51;94733.28;653647;212;31479;-75
2022/02/14 04:27:29;;;;;;;0.82;0.60;;;1.50;1.40;;;1.95;54.03;94729.78;639646;218;31534;-74
2022/02/14 04:30:11;;;;;;;2.80;0.70;;;1.60;1.40;;;1.83;54.81;94731.41;646566;216;31514;-75
2022/02/14 04:32:58;;;;;;;0.70;0.40;;;1.40;1.40;;;1.86;55.12;94726.23;653637;216;32015;-75
2022/02/14 04:35:51;;;;;;;0.60;0.50;;;1.50;1.40;;;2.05;53.64;94726.91;649353;212;31797;-75
2022/02/14 04:38:33;;;;;;;0.90;0.70;;;1.90;1.40;;;2.07;53.12;94722.84;647160;216;31753;-75
2022/02/14 04:41:14;;;;;;;1.30;0.70;;;1.80;1.40;;;2.01;53.54;94718.92;623050;226;31822;-75
2022/02/14 04:43:56;;;;;;;0.50;0.50;;;1.70;1.40;;;2.13;53.58;94719.69;649951;212;34056;-75
2022/02/14 04:46:41;;;;;;;1.40;0.50;;;1.90;1.40;;;2.18;53.85;94723.09;619393;226;31829;-75
2022/02/14 04:49:23;;;;;;;0.80;0.50;;;1.80;1.40;;;2.35;53.24;94724.05;649770;216;31488;-75
2022/02/14 04:52:04;;;;;;;0.80;0.50;;;2.10;1.40;;;2.39;53.63;94721.70;652270;216;31499;-75
2022/02/14 04:54:46;;;;;;;0.60;0.40;;;2.00;1.40;;;2.37;54.25;94722.08;646448;216;32009;-75
2022/02/14 04:57:31;;;;;;;1.30;1.10;;;2.00;1.40;;;2.39;54.58;94725.59;648904;213;31507;-75
2022/02/14 05:00:14;;;;;;;1.00;0.60;;;2.00;1.40;;;2.45;54.13;94722.78;647824;212;31534;-75
2022/02/14 05:02:57;;;;;;;0.60;0.50;;;2.10;1.40;;;2.59;53.22;94716.91;651813;216;31711;-75
2022/02/14 05:05:38;;;;;;;0.50;0.50;;;2.20;1.40;;;2.61;52.94;94712.97;646570;216;38536;-74
2022/02/14 05:08:20;;;;;;;1.80;0.73;;;2.20;1.40;;;2.45;53.95;94711.48;647912;216;31464;-75
2022/02/14 05:11:05;;;;;;;1.05;0.55;;;2.00;1.40;;;2.41;53.87;94706.34;648475;212;31608;-75
2022/02/14 05:13:47;;;;;;;0.80;0.80;;;2.00;1.40;;;2.43;53.41;94707.80;621869;226;31837;-75
2022/02/14 05:16:28;;;;;;;2.40;0.60;;;2.10;1.40;;;2.48;53.20;94706.50;647397;212;32153;-75
2022/02/14 05:19:10;;;;;;;0.60;0.50;;;2.10;1.40;;;2.60;52.80;94713.31;646381;212;31502;-75
2022/02/14 05:21:52;;;;;;;0.40;0.40;;;2.20;1.40;;;2.71;51.87;94717.59;647791;212;31654;-75
2022/02/14 05:24:40;;;;;;;0.60;0.50;;;2.40;1.40;;;2.71;51.66;94705.70;650287;216;31618;-78
2022/02/14 05:27:27;;;;;;;0.80;0.50;;;2.30;1.40;;;2.79;51.38;94712.34;649177;216;32458;-74
2022/02/14 05:30:11;;;;;;;0.60;0.60;;;2.40;1.40;;;2.89;51.16;94711.92;650448;212;32046;-75
2022/02/14 05:32:53;;;;;;;1.70;0.80;;;2.60;1.40;;;3.10;50.58;94713.30;651617;212;31547;-75
2022/02/14 05:35:54;;;;;;;1.00;0.90;;;2.70;1.40;;;3.18;50.15;94708.30;651799;216;31486;-74
2022/02/14 05:38:39;;;;;;;0.70;0.60;;;2.80;1.40;;;3.22;50.05;94708.44;649139;216;31525;-74
2022/02/14 05:41:21;;;;;;;0.75;0.30;;;2.80;1.40;;;3.26;49.55;94707.34;647664;216;31496;-75
2022/02/14 05:44:04;;;;;;;0.90;0.50;;;2.90;1.40;;;3.32;48.93;94708.16;645483;216;31516;-75
2022/02/14 05:46:44;;;;;;;0.70;0.70;;;2.90;1.40;;;3.41;48.50;94709.73;647354;216;31802;-76
2022/02/14 05:49:26;;;;;;;0.50;0.40;;;3.00;1.40;;;3.37;49.00;94712.98;652042;216;31635;-75
2022/02/14 05:52:11;;;;;;;0.60;0.50;;;2.90;1.40;;;3.44;48.91;94704.52;625583;222;42557;-75
2022/02/14 05:54:53;;;;;;;1.60;0.60;;;3.00;1.40;;;3.41;49.12;94705.56;617931;226;31886;-75
2022/02/14 05:57:34;;;;;;;0.60;0.60;;;3.00;1.40;;;3.45;49.32;94699.27;647112;216;31525;-75
2022/02/14 06:00:17;;;;;;;0.50;0.40;;;3.00;1.40;;;3.48;48.76;94700.00;649799;216;31618;-75
2022/02/14 06:03:01;;;;;;;0.60;0.50;;;3.00;1.40;;;3.55;48.82;94701.58;651992;216;31490;-75
2022/02/14 06:05:43;;;;;;;0.65;0.60;;;3.00;1.40;;;3.63;48.06;94697.98;644711;216;31576;-75
2022/02/14 06:08:25;;;;;;;0.60;0.60;;;3.10;1.40;;;3.73;48.47;94703.67;646457;212;32085;-74
2022/02/14 06:11:10;;;;;;;1.35;0.82;;;3.20;1.40;;;3.69;48.84;94702.72;646300;212;31540;-75
2022/02/14 06:13:51;;;;;;;1.30;0.60;;;3.20;1.40;;;3.67;49.31;94698.77;621309;223;32588;-75
2022/02/14 06:16:33;;;;;;;0.50;0.50;;;3.10;1.40;;;3.71;48.56;94700.45;649079;216;31748;-75
2022/02/14 06:19:15;;;;;;;1.10;0.80;;;3.20;1.40;;;3.75;48.47;94703.45;646533;212;31600;-75
2022/02/14 06:21:57;;;;;;;0.57;0.50;;;3.30;1.40;;;3.78;48.78;94696.50;646988;212;31520;-76
2022/02/14 06:24:42;;;;;;;1.20;0.80;;;3.30;1.40;;;3.78;48.72;94696.94;647573;212;31747;-74
2022/02/14 06:27:24;;;;;;;1.17;0.95;;;3.40;1.40;;;3.71;48.85;94695.67;648707;216;31509;-75
2022/02/14 06:30:06;;;;;;;0.68;0.40;;;3.20;1.40;;;3.90;47.24;94701.39;645988;216;31571;-75
2022/02/14 06:32:51;;;;;;;0.70;0.60;;;3.50;1.40;;;3.91;47.27;94700.71;648394;216;31512;-74
2022/02/14 06:35:52;;;;;;;0.65;0.62;;;3.40;1.40;;;3.90;47.91;94703.69;647879;216;31521;-75
2022/02/14 06:38:33;;;;;;;1.10;0.50;;;3.40;1.40;;;3.92;48.50;94703.33;645563;212;31524;-76
2022/02/14 06:41:15;;;;;;;0.50;0.50;;;3.40;1.40;;;4.00;48.23;94700.69;647018;212;31690;-78
2022/02/14 06:43:57;;;;;;;0.70;0.55;;;3.50;1.40;;;4.07;47.79;94697.19;647324;216;31509;-78
2022/02/14 06:46:41;;;;;;;0.90;0.90;;;3.60;1.40;;;4.15;47.62;94698.00;642793;216;31487;-78
2022/02/14 06:49:29;;;;;;;1.10;0.60;;;3.70;1.40;;;4.24;47.71;94697.22;648575;212;31508;-78
2022/02/14 06:52:14;;;;;;;0.60;0.60;;;3.70;1.40;;;4.32;47.38;94704.79;646887;216;31507;-78
2022/02/14 06:54:56;;;;;;;1.20;0.60;;;3.80;1.40;;;4.44;47.13;94696.94;645986;212;31542;-78
2022/02/14 06:57:38;;;;;;;0.85;0.60;;;3.90;1.40;;;4.50;46.90;94698.72;620603;226;31837;-77
2022/02/14 07:00:19;;;;;;;0.90;0.70;;;4.00;1.40;;;4.55;46.69;94695.56;646705;216;31498;-79
2022/02/14 07:03:01;;;;;;;0.68;0.62;;;4.00;1.40;;;4.64;45.95;94696.37;647729;216;31634;-76
2022/02/14 07:05:43;;;;;;;0.70;0.50;;;4.10;1.40;;;4.76;45.66;94699.53;616518;226;31860;-78
2022/02/14 07:08:25;;;;;;;1.00;0.62;;;4.20;1.40;;;4.83;45.86;94702.80;646725;216;31409;-77
2022/02/14 07:11:06;;;;;;;1.62;0.60;;;4.30;1.40;;;4.86;45.76;94696.17;645434;216;31508;-77
2022/02/14 07:13:49;;;;;;;1.10;0.90;;;4.30;1.40;;;4.94;45.43;94697.84;645886;212;32200;-78
2022/02/14 07:16:31;;;;;;;0.50;0.50;;;4.40;1.40;;;5.02;45.95;94700.89;643350;214;31533;-78
2022/02/14 07:19:15;;;;;;;0.70;0.60;;;4.30;1.40;;;5.02;45.38;94702.23;648035;216;42143;-77
2022/02/14 07:21:57;;;;;;;0.70;0.50;;;4.40;1.40;;;5.08;45.48;94692.54;645591;216;43003;-77
2022/02/14 07:24:39;;;;;;;0.80;0.77;;;4.40;1.40;;;5.09;45.10;94695.69;647525;212;31521;-78
2022/02/14 07:27:21;;;;;;;0.55;0.45;;;4.50;1.40;;;5.14;45.47;94695.95;646835;216;31494;-77
2022/02/14 07:30:07;;;;;;;0.73;0.50;;;4.50;1.40;;;5.16;45.00;94693.55;646425;212;31541;-77
2022/02/14 07:32:49;;;;;;;0.82;0.60;;;4.50;1.40;;;5.11;45.05;94693.90;647868;216;31527;-77
2022/02/14 07:35:52;;;;;;;0.50;0.50;;;4.50;1.40;;;5.16;45.10;94687.97;644719;212;31532;-78
2022/02/14 07:38:34;;;;;;;0.90;0.65;;;4.60;1.40;;;5.22;45.13;94692.55;646391;216;31529;-77
2022/02/14 07:41:19;;;;;;;0.85;0.50;;;4.60;1.40;;;5.26;44.77;94688.34;647817;212;31494;-76
2022/02/14 07:44:01;;;;;;;0.88;0.65;;;4.60;1.40;;;5.34;44.55;94689.84;650240;212;31562;-77
2022/02/14 07:46:44;;;;;;;0.50;0.40;;;4.70;1.40;;;5.35;44.89;94694.13;644944;216;31501;-77
2022/02/14 07:49:29;;;;;;;1.00;0.80;;;4.70;1.40;;;5.37;44.65;94690.45;622037;225;31800;-78
2022/02/14 07:52:11;;;;;;;1.00;0.60;;;4.80;1.40;;;5.42;45.06;94679.45;646752;216;31495;-77
2022/02/14 07:54:53;;;;;;;0.80;0.60;;;4.80;1.40;;;5.48;45.22;94682.89;645025;213;31540;-77
2022/02/14 07:57:34;;;;;;;0.70;0.60;;;4.90;1.40;;;5.70;44.57;94678.12;646556;212;31464;-76
2022/02/14 08:00:17;;;;;;;0.90;0.75;;;5.00;1.40;;;5.69;44.75;94672.23;647827;216;42221;-77
2022/02/14 08:02:58;;;;;;;0.70;0.70;;;5.00;1.40;;;5.76;44.45;94675.45;644913;216;32192;-77
2022/02/14 08:05:41;;;;;;;1.30;0.60;;;5.10;1.40;;;5.75;44.99;94673.80;644443;212;31539;-77
2022/02/14 08:08:25;;;;;;;0.40;0.35;;;5.10;1.40;;;5.91;44.51;94674.08;646532;212;31734;-77
2022/02/14 08:11:07;;;;;;;1.10;0.73;;;5.20;1.40;;;6.15;44.08;94674.17;650808;212;31504;-77
2022/02/14 08:13:49;;;;;;;1.27;0.50;;;5.40;1.40;;;6.32;43.89;94669.37;648427;213;31558;-77
2022/02/14 08:16:32;;;;;;;0.75;0.62;;;5.60;1.40;;;6.41;44.02;94670.50;648897;216;35426;-78
2022/02/14 08:19:12;;;;;;;1.50;0.77;;;5.70;1.40;;;6.37;43.40;94670.84;643637;219;31501;-77
2022/02/14 08:21:55;;;;;;;1.33;0.50;;;5.60;1.40;;;6.34;43.32;94668.69;648010;216;31581;-77
2022/02/14 08:24:39;;;;;;;0.90;0.80;;;5.60;1.40;;;6.38;43.61;94666.28;621257;226;32042;-77
2022/02/14 08:27:24;;;;;;;1.17;0.57;;;5.70;1.40;;;6.55;42.96;94665.90;620002;226;32469;-78
2022/02/14 08:30:08;;;;;;;0.50;0.40;;;6.00;1.40;;;6.82;42.39;94673.63;649263;212;31517;-77
2022/02/14 08:32:50;;;;;;;0.60;0.50;;;6.10;1.40;;;6.92;42.68;94661.03;647138;216;31464;-78
2022/02/14 08:35:51;;;;;;;0.60;0.45;;;6.20;1.40;;;6.89;41.89;94658.92;648076;212;32017;-78
2022/02/14 08:38:35;;;;;;;2.45;1.00;;;6.10;1.40;;;6.87;41.91;94659.84;618929;222;31888;-77
2022/02/14 08:41:15;;;;;;;0.60;0.40;;;6.10;1.40;;;6.83;42.15;94657.98;620064;226;42542;-77
2022/02/14 08:43:59;;;;;;;1.50;0.60;;;6.10;1.40;;;6.92;42.29;94654.12;646247;212;31551;-76
2022/02/14 08:46:41;;;;;;;0.80;0.60;;;6.20;1.40;;;7.07;42.04;94664.88;646748;212;31483;-77
2022/02/14 08:49:24;;;;;;;0.80;0.70;;;6.40;1.40;;;7.16;41.33;94657.42;648591;216;31724;-75
2022/02/14 08:52:05;;;;;;;1.00;0.70;;;6.50;1.40;;;7.54;41.24;94661.46;618101;226;32263;-77
2022/02/14 08:54:46;;;;;;;0.90;0.60;;;6.90;1.40;;;7.66;40.11;94650.27;647601;216;31555;-77
2022/02/14 08:57:29;;;;;;;1.55;0.55;;;7.10;1.40;;;7.74;40.09;94651.43;620483;226;32016;-77
2022/02/14 09:00:12;;;;;;;1.20;0.60;;;7.30;1.40;;;7.91;39.59;94647.00;648455;212;31937;-76
2022/02/14 09:02:53;;;;;;;1.17;0.63;;;7.20;1.40;;;7.56;39.26;94657.13;645536;212;31544;-77
2022/02/14 09:05:35;;;;;;;1.00;0.70;;;6.80;1.40;;;7.43;39.83;94649.84;619972;226;31935;-77
2022/02/14 09:08:17;;;;;;;1.50;0.70;;;6.70;1.40;;;7.45;39.86;94642.69;647210;212;31484;-78
2022/02/14 09:10:59;;;;;;;0.70;0.55;;;7.00;1.40;;;8.05;39.32;94643.38;644812;216;31554;-77
2022/02/14 09:13:43;;;;;;;0.73;0.60;;;7.80;1.40;;;9.80;37.17;94634.73;619084;226;31855;-77
2022/02/14 09:18:59;;;;;;;0.60;0.40;;;12.10;1.40;;;12.90;34.29;94621.02;647610;216;31549;-77
2022/02/14 09:21:42;;;;;;;0.62;0.55;;;13.00;1.40;;;12.68;33.35;94619.63;619229;222;31931;-78
2022/02/14 09:24:25;;;;;;;0.87;0.57;;;11.80;1.40;;;13.36;33.16;94626.02;649355;216;32048;-78
2022/02/14 09:27:07;;;;;;;1.90;0.70;;;12.50;1.40;;;12.70;33.18;94624.05;646717;216;31530;-77
2022/02/14 09:29:49;;;;;;;1.00;0.50;;;11.40;1.40;;;13.05;33.18;94619.95;647694;212;31466;-78
2022/02/14 09:32:34;;;;;;;1.33;0.85;;;12.20;1.40;;;13.75;32.24;94616.44;645733;212;31543;-78
2022/02/14 09:35:51;;;;;;;2.62;0.90;;;12.00;1.40;;;13.27;32.29;94609.77;619261;226;32301;-78
2022/02/14 09:38:33;;;;;;;1.30;0.70;;;12.10;1.40;;;15.65;32.23;94606.66;645427;212;31485;-76
2022/02/14 09:41:16;;;;;;;2.00;0.70;;;14.50;1.40;;;14.94;31.51;94611.61;645522;216;31488;-78
2022/02/14 09:43:56;;;;;;;2.60;0.90;;;12.90;1.40;;;15.23;30.94;94610.39;647831;216;32082;-76
2022/02/14 09:46:42;;;;;;;1.27;0.50;;;13.70;1.40;;;15.04;30.65;94607.00;646657;216;31744;-76
2022/02/14 09:49:23;;;;;;;2.17;0.90;;;13.70;1.40;;;16.32;30.26;94608.03;646620;216;31484;-78
2022/02/14 09:52:07;;;;;;;4.27;1.20;;;14.40;1.40;;;16.85;30.19;94602.08;649357;216;31647;-77
2022/02/14 09:54:49;;;;;;;1.15;0.80;;;15.10;1.40;;;17.37;27.86;94598.92;646151;216;31704;-77
2022/02/14 09:57:31;;;;;;;1.50;0.60;;;15.30;1.40;;;17.45;28.30;94601.39;618630;226;31920;-76
2022/02/14 10:00:14;;;;;;;0.77;0.60;;;15.90;1.40;;;16.99;27.76;94600.50;647129;216;31642;-76
2022/02/14 10:03:09;;;;;;;0.80;0.70;;;13.70;1.40;;;17.39;29.66;94598.58;648535;216;31520;-76
2022/02/14 10:05:52;;;;;;;0.90;0.60;;;16.30;1.40;;;19.75;28.69;94593.11;643600;212;31810;-77
2022/02/14 10:08:33;;;;;;;1.37;0.52;;;18.70;1.40;;;21.11;26.00;94588.64;646720;216;42120;-78
2022/02/14 10:11:15;;;;;;;1.40;0.80;;;18.50;1.40;;;22.49;25.50;94588.31;618939;222;31820;-77
2022/02/14 10:14:19;;;;;;;2.40;1.00;;;19.50;1.40;;;21.05;25.62;94599.77;647942;216;31644;-76
2022/02/14 10:17:06;;;;;;;1.67;0.60;;;19.30;1.40;;;20.94;25.67;94605.04;646521;216;31680;-77
2022/02/14 10:19:54;;;;;;;1.00;0.70;;;16.20;1.40;;;18.99;27.54;94603.39;647334;216;31693;-77
2022/02/14 10:22:59;;;;;;;1.30;0.60;;;17.10;1.40;;;20.61;27.64;94604.03;645923;216;31571;-76
2022/02/14 10:25:40;;;;;;;0.88;0.60;;;16.30;1.40;;;19.05;25.49;94606.51;647189;216;31517;-77
2022/02/14 10:28:23;;;;;;;1.10;0.90;;;14.40;1.40;;;17.60;27.12;94610.38;647702;216;31620;-77
2022/02/14 10:31:11;;;;;;;1.70;0.70;;;13.30;1.40;;;16.31;27.81;94610.30;645573;216;32014;-78
2022/02/14 10:35:51;;;;;;;1.90;1.20;;;13.60;1.40;;;16.40;28.69;94606.10;648645;212;31810;-76
2022/02/14 10:38:32;;;;;;;1.90;0.90;;;14.40;1.40;;;18.58;26.33;94596.09;647122;216;31607;-76
2022/02/14 10:41:14;;;;;;;2.10;0.80;;;15.80;1.40;;;18.13;26.23;94589.30;647792;216;31552;-76
2022/02/14 10:44:02;;;;;;;1.60;0.80;;;14.60;1.40;;;17.09;28.01;94588.11;646810;216;31537;-76
2022/02/14 10:46:43;;;;;;;1.08;0.90;;;14.60;1.40;;;16.52;27.24;94590.57;647006;216;31546;-76
2022/02/14 10:49:25;;;;;;;1.40;1.30;;;14.80;1.40;;;19.02;27.50;94575.16;646253;212;32243;-77
2022/02/14 10:52:11;;;;;;;0.87;0.50;;;17.60;1.40;;;18.87;24.64;94576.88;646948;216;31669;-76
2022/02/14 10:54:53;;;;;;;1.20;0.60;;;16.60;1.40;;;19.43;26.75;94580.67;620181;222;31837;-76
2022/02/14 10:57:35;;;;;;;1.10;0.80;;;18.00;1.40;;;20.60;23.82;94582.89;646902;216;36090;-77
2022/02/14 11:00:18;;;;;;;2.87;0.70;;;16.90;1.40;;;19.90;24.31;94580.61;647880;212;31500;-76
2022/02/14 11:03:01;;;;;;;2.03;0.80;;;16.40;1.40;;;21.28;23.20;94568.97;646136;212;31513;-76
2022/02/14 11:05:43;;;;;;;0.70;0.57;;;17.40;1.40;;;22.86;23.36;94557.88;645317;216;31560;-77
2022/02/14 11:08:25;;;;;;;1.87;0.77;;;18.40;1.40;;;22.86;21.74;94556.38;647180;216;31471;-78
2022/02/14 11:11:08;;;;;;;0.93;0.55;;;18.20;1.40;;;22.18;21.86;94563.42;618372;222;42628;-77
2022/02/14 11:13:50;;;;;;;1.20;0.60;;;18.20;1.40;;;23.41;22.06;94554.91;631134;221;31690;-77
2022/02/14 11:16:31;;;;;;;0.52;0.50;;;18.60;1.40;;;24.02;23.97;94550.63;646611;212;31544;-77
2022/02/14 11:19:13;;;;;;;1.20;0.60;;;18.60;1.40;;;25.89;22.80;94539.93;647701;216;31908;-78
2022/02/14 11:21:59;;;;;;;0.90;0.60;;;19.90;1.40;;;25.53;20.89;94537.05;645113;212;31545;-77
2022/02/14 11:24:39;;;;;;;0.95;0.60;;;19.30;1.40;;;27.67;21.91;94527.11;619072;226;32134;-76
2022/02/14 11:27:21;;;;;;;1.15;0.40;;;19.40;1.40;;;25.77;20.33;94528.25;649535;212;31537;-77
2022/02/14 11:30:05;;;;;;;1.10;0.60;;;18.50;1.40;;;24.82;24.00;94530.25;646678;212;31531;-76
2022/02/14 11:36:02;;;;;;;1.77;0.70;;;15.90;1.40;;;21.73;23.42;94529.30;651178;212;31902;-76
2022/02/14 11:38:47;;;;;;;0.82;0.50;;;15.70;1.40;;;19.98;24.53;94532.05;619532;226;31886;-77
2022/02/14 11:44:20;;;;;;;1.33;0.70;;;15.50;1.40;;;20.91;24.39;94526.73;632012;219;32308;-77
2022/02/14 11:47:09;;;;;;;1.30;0.60;;;18.90;1.40;;;24.84;22.59;94517.23;646465;216;31606;-77
2022/02/14 11:49:52;;;;;;;1.50;0.60;;;21.20;1.40;;;25.39;21.56;94505.13;647736;216;31674;-77
2022/02/14 11:52:34;;;;;;;1.40;0.70;;;21.00;1.40;;;26.44;20.30;94501.73;621959;225;32042;-77
2022/02/14 11:55:15;;;;;;;0.60;0.40;;;21.70;1.40;;;22.79;21.94;94512.32;644920;212;31653;-77
2022/02/14 11:57:56;;;;;;;0.90;0.70;;;19.30;1.40;;;21.31;22.55;94501.84;648866;216;31950;-76
2022/02/14 12:00:38;;;;;;;1.70;0.80;;;17.90;1.40;;;22.01;21.99;94491.88;647001;216;31925;-77
2022/02/14 12:03:20;;;;;;;1.40;0.73;;;17.70;1.40;;;23.58;23.56;94487.50;647964;216;31520;-78